Terminal Aerodrome Forecast
Issued by NWS Spokane, WA

Home | Current Version | Previous Version | Text Only | Print | Product List | Glossary On
Versions: 1 2 3 4 5 6 7 8 9 10 11 12 13 14 15 16 17 18 19 20 21 22 23 24 25
000
FTUS46 KOTX 020520
TAFEAT
TAF
KEAT 020520Z 0206/0306 30010KT P6SM BKN080 OVC150
     FM021000 30007KT P6SM VCSH SCT060 BKN080 BKN120
     FM021400 31012KT P6SM SCT080
     FM021900 29016G22KT P6SM SCT150
     FM030200 29009KT P6SM FEW200=

USA.gov is the U.S. government's official web portal to all federal, state and local government web resources and services.